Terminal Aerodrome Forecast
Issued by NWS Wilmington, OH

Current Version | Previous Version | Graphics & Text | Print | Product List | Glossary On
Versions: 1 2 3 4 5 6 7 8 9 10 11 12 13 14 15 16 17 18 19 20 21 22 23 24
000
FTUS41 KILN 011100 RRA
TAFILN
TAF
KILN 011142Z 0112/0212 19005KT 4SM -FZRASNPL SCT015 OVC025
      TEMPO 0112/0116 SCT005 OVC012
     FM011600 20006KT 3SM -RASN OVC012
     FM012100 27007KT 1SM -SN OVC012
      TEMPO 0123/0203 1/2SM SN OVC008
     FM020400 29009KT P6SM OVC012=

USA.gov is the U.S. government's official web portal to all federal, state and local government web resources and services.